Bowling Green, Kentucky
Current Conditions -  °F | °C
As of 7:53 AM on Wednesday 28 Jan 2015 (Local Time) from KBWG Reporting Station
Clear Clear  
Wind Chill: 17°   Ceiling: Unl
Heat Index: 27°   Visibility: 10mi
Dew Point: 17°   Wind: 10mph
Humidity: 66%   Direction: 90°E
Pressure: 30.35"   Gusts: NA
Location:  36.99°N, 86.44°W
Report Text: KBWG 281353Z AUTO 09009KT 10SM CLR M03/M08 A3035 RMK AO2 SLP281 T10281083
Loading
Personal Weather Stations






























Interactive Weather Map New forecast layout! Learn more

10-Day Weather Forecast

Advertisements
Track Severe Weather on mobile